createdAt,value
2023-01-11T00:02:59.210Z,3.30
2023-01-11T00:06:04.839Z,3.30
2023-01-11T00:09:08.191Z,3.30
2023-01-11T00:12:14.213Z,3.30
2023-01-11T00:15:17.907Z,3.20
2023-01-11T00:18:21.257Z,3.20
2023-01-11T00:21:26.733Z,3.20
2023-01-11T00:24:29.992Z,3.20
2023-01-11T00:27:33.536Z,3.30
2023-01-11T00:30:37.165Z,3.30
2023-01-11T00:33:40.382Z,3.30
2023-01-11T00:36:45.216Z,3.30
2023-01-11T00:39:48.524Z,3.30
2023-01-11T00:43:09.127Z,3.40
2023-01-11T00:46:29.131Z,3.30
2023-01-11T00:49:32.755Z,3.30
2023-01-11T00:55:41.028Z,3.20
2023-01-11T00:58:44.192Z,3.40
2023-01-11T01:01:47.449Z,3.30
2023-01-11T01:04:50.793Z,3.30
2023-01-11T01:07:55.479Z,3.30
2023-01-11T01:10:58.623Z,3.30
2023-01-11T01:14:19.082Z,3.30
2023-01-11T01:17:22.048Z,3.30
2023-01-11T01:20:26.051Z,3.20
2023-01-11T01:23:30.598Z,3.30
2023-01-11T01:26:34.059Z,3.30
2023-01-11T01:29:37.442Z,3.30
2023-01-11T01:32:40.579Z,3.30
2023-01-11T01:35:43.749Z,3.30
2023-01-11T01:38:48.697Z,0.20
2023-01-11T01:41:51.869Z,3.40
2023-01-11T01:45:02.355Z,3.40
2023-01-11T01:48:07.500Z,3.30
2023-01-11T01:51:13.971Z,3.40
2023-01-11T01:54:22.433Z,3.40
2023-01-11T01:57:30.397Z,3.40
2023-01-11T02:00:35.466Z,3.40
2023-01-11T02:03:39.295Z,3.40
2023-01-11T02:06:43.489Z,3.40
2023-01-11T02:09:52.455Z,3.30
2023-01-11T02:13:00.716Z,3.40
2023-01-11T02:16:09.869Z,3.40
2023-01-11T02:19:27.650Z,3.40
2023-01-11T02:23:04.166Z,3.40
2023-01-11T02:26:48.409Z,3.40
2023-01-11T02:30:01.652Z,3.40
2023-01-11T02:33:14.184Z,3.50
2023-01-11T02:36:23.198Z,3.40
2023-01-11T02:39:36.961Z,4.30
2023-01-11T02:43:02.820Z,3.40
2023-01-11T02:46:14.434Z,3.40
2023-01-11T02:49:27.678Z,3.40
2023-01-11T02:52:39.732Z,3.30
2023-01-11T02:55:47.737Z,3.30
2023-01-11T02:58:52.803Z,3.40
2023-01-11T03:01:57.525Z,3.40
2023-01-11T03:05:00.756Z,3.40
2023-01-11T03:08:12.986Z,3.40
2023-01-11T03:11:41.802Z,3.40
2023-01-11T03:14:55.513Z,3.40
2023-01-11T03:18:08.669Z,3.40
2023-01-11T03:21:24.239Z,3.40
2023-01-11T03:24:34.841Z,3.30
2023-01-11T03:27:46.242Z,3.40
2023-01-11T03:30:53.590Z,3.30
2023-01-11T03:34:04.757Z,3.40
2023-01-11T03:37:12.087Z,3.30
2023-01-11T03:40:19.306Z,3.30
2023-01-11T03:43:24.433Z,3.30
2023-01-11T03:46:30.721Z,3.40
2023-01-11T03:49:38.695Z,3.40
2023-01-11T03:52:43.613Z,3.40
2023-01-11T03:55:50.652Z,3.50
2023-01-11T03:58:53.836Z,3.40
2023-01-11T04:01:57.699Z,3.40
2023-01-11T04:05:02.737Z,3.40
2023-01-11T04:08:06.399Z,3.40
2023-01-11T04:11:09.578Z,3.40
2023-01-11T04:14:12.849Z,3.30
2023-01-11T04:17:15.997Z,3.30
2023-01-11T04:20:20.783Z,3.40
2023-01-11T04:23:24.011Z,3.30
2023-01-11T04:26:27.255Z,3.30
2023-01-11T04:29:30.464Z,3.40
2023-01-11T04:32:33.584Z,3.40
2023-01-11T04:35:38.225Z,3.40
2023-01-11T04:38:41.469Z,4.60
2023-01-11T04:42:01.803Z,3.30
2023-01-11T04:45:06.356Z,3.30
2023-01-11T04:48:09.470Z,3.30
2023-01-11T04:51:14.014Z,3.30
2023-01-11T04:54:17.492Z,3.30
2023-01-11T04:57:20.839Z,3.30
2023-01-11T05:00:24.027Z,3.40
2023-01-11T05:03:27.237Z,3.30
2023-01-11T05:06:31.861Z,3.40
2023-01-11T05:09:35.471Z,3.40
2023-01-11T05:12:38.730Z,3.40
2023-01-11T05:15:41.949Z,2.60
2023-01-11T05:18:46.912Z,3.40
2023-01-11T05:21:51.498Z,3.40
2023-01-11T05:24:54.732Z,3.40
2023-01-11T05:27:59.106Z,3.40
2023-01-11T05:31:02.549Z,3.40
2023-01-11T05:34:07.635Z,3.40
2023-01-11T05:37:12.219Z,3.40
2023-01-11T05:40:17.041Z,3.30
2023-01-11T05:43:20.854Z,3.40
2023-01-11T05:46:23.195Z,3.40
2023-01-11T05:49:26.625Z,3.40
2023-01-11T05:52:31.142Z,3.40
2023-01-11T05:55:34.372Z,3.40
2023-01-11T05:58:37.577Z,3.40
2023-01-11T06:01:41.167Z,3.40
2023-01-11T06:04:44.293Z,3.40
2023-01-11T06:07:49.104Z,3.30
2023-01-11T06:10:53.276Z,3.40
2023-01-11T06:13:56.509Z,3.40
2023-01-11T06:17:02.292Z,3.40
2023-01-11T06:20:06.532Z,3.40
2023-01-11T06:23:11.122Z,3.40
2023-01-11T06:26:17.701Z,3.40
2023-01-11T06:29:21.170Z,3.40
2023-01-11T06:32:24.376Z,4.80
2023-01-11T06:35:27.607Z,3.40
2023-01-11T06:38:32.504Z,3.40
2023-01-11T06:41:35.915Z,3.30
2023-01-11T06:44:39.211Z,3.40
2023-01-11T06:47:42.444Z,3.40
2023-01-11T06:50:48.651Z,3.40
2023-01-11T06:53:53.283Z,3.40
2023-01-11T06:56:56.606Z,3.50
2023-01-11T06:59:59.866Z,3.40
2023-01-11T07:03:04.402Z,3.50
2023-01-11T07:06:08.064Z,3.50
2023-01-11T07:09:12.764Z,3.50
2023-01-11T07:12:16.077Z,3.60
2023-01-11T07:15:19.443Z,3.50
2023-01-11T07:18:22.882Z,3.60
2023-01-11T07:21:26.167Z,3.60
2023-01-11T07:27:34.565Z,3.60
2023-01-11T07:31:00.731Z,3.60
2023-01-11T07:34:03.911Z,3.60
2023-01-11T07:37:09.584Z,3.60
2023-01-11T07:43:38.963Z,3.70
2023-01-11T07:46:42.587Z,3.70
2023-01-11T07:52:50.047Z,3.80
2023-01-11T07:55:56.343Z,3.80
2023-01-11T07:58:59.897Z,3.80
2023-01-11T08:02:03.136Z,3.80
2023-01-11T08:05:07.059Z,3.80
2023-01-11T08:08:10.450Z,3.80
2023-01-11T08:11:32.455Z,3.80
2023-01-11T08:14:41.410Z,3.80
2023-01-11T08:17:44.717Z,3.80
2023-01-11T08:20:47.957Z,3.80
2023-01-11T08:23:51.215Z,3.80
2023-01-11T08:29:59.542Z,2.00
2023-01-11T08:33:03.499Z,3.90
2023-01-11T08:36:07.118Z,3.90
2023-01-11T08:39:10.464Z,3.90
2023-01-11T08:42:15.254Z,3.90
2023-01-11T08:45:18.605Z,3.80
2023-01-11T08:48:22.188Z,3.80
2023-01-11T08:51:25.451Z,3.80
2023-01-11T08:54:28.772Z,3.90
2023-01-11T09:00:37.117Z,3.90
2023-01-11T09:03:40.403Z,3.90
2023-01-11T09:06:43.652Z,4.00
2023-01-11T09:12:53.294Z,4.10
2023-01-11T09:15:57.716Z,4.00
2023-01-11T09:19:01.056Z,4.00
2023-01-11T09:22:04.364Z,4.00
2023-01-11T09:25:09.685Z,4.00
2023-01-11T09:28:14.281Z,4.10
2023-01-11T09:31:17.608Z,4.20
2023-01-11T09:34:21.186Z,4.10
2023-01-11T09:37:24.711Z,4.10
2023-01-11T09:40:34.799Z,4.00
2023-01-11T09:43:46.636Z,4.00
2023-01-11T09:46:54.629Z,4.00
2023-01-11T09:50:01.561Z,4.10
2023-01-11T09:53:09.782Z,4.20
2023-01-11T09:56:16.638Z,4.20
2023-01-11T09:59:27.026Z,4.10
2023-01-11T10:02:36.345Z,4.00
2023-01-11T10:06:02.410Z,4.20
2023-01-11T10:18:27.582Z,4.40
2023-01-11T10:19:50.206Z,4.30
2023-01-11T10:22:58.565Z,4.40
2023-01-11T10:26:07.250Z,4.30
2023-01-11T10:29:38.687Z,4.30
2023-01-11T10:33:02.060Z,4.30
2023-01-11T10:36:27.590Z,4.30
2023-01-11T10:39:55.515Z,4.30
2023-01-11T10:43:04.830Z,4.30
2023-01-11T10:46:12.020Z,4.30
2023-01-11T10:49:39.152Z,4.20
2023-01-11T10:52:51.591Z,4.30
2023-01-11T10:56:04.902Z,4.30
2023-01-11T10:59:30.947Z,4.30
2023-01-11T11:03:00.494Z,4.30
2023-01-11T11:06:11.813Z,4.30
2023-01-11T11:09:23.281Z,4.30
2023-01-11T11:12:30.285Z,4.30
2023-01-11T11:15:40.150Z,4.40
2023-01-11T11:18:44.726Z,4.40
2023-01-11T11:21:52.309Z,4.40
2023-01-11T11:25:01.318Z,4.40
2023-01-11T11:28:06.718Z,4.40
2023-01-11T11:31:13.512Z,4.30
2023-01-11T11:34:20.084Z,4.30
2023-01-11T11:37:32.440Z,4.40
2023-01-11T11:40:37.830Z,4.40
2023-01-11T11:43:42.254Z,4.40
2023-01-11T11:46:58.115Z,4.40
2023-01-11T11:50:43.153Z,4.40
2023-01-11T11:53:53.231Z,4.30
2023-01-11T11:56:59.135Z,4.50
2023-01-11T12:00:06.573Z,4.60
2023-01-11T12:03:17.481Z,4.60
2023-01-11T12:06:25.887Z,4.50
2023-01-11T12:09:32.858Z,4.40
2023-01-11T12:12:49.731Z,4.40
2023-01-11T12:15:57.731Z,4.40
2023-01-11T12:22:23.140Z,4.50
2023-01-11T12:25:29.359Z,4.50
2023-01-11T12:29:03.214Z,4.40
2023-01-11T12:32:21.718Z,4.40
2023-01-11T12:35:40.489Z,5.60
2023-01-11T12:38:57.034Z,4.50
2023-01-11T12:42:15.629Z,4.40
2023-01-11T12:45:31.606Z,4.40
2023-01-11T12:48:50.266Z,4.40
2023-01-11T12:52:17.591Z,4.40
2023-01-11T12:55:33.326Z,4.40
2023-01-11T12:58:44.926Z,4.40
2023-01-11T13:01:57.257Z,2.30
2023-01-11T13:05:15.363Z,4.20
2023-01-11T13:08:25.918Z,4.40
2023-01-11T13:11:40.199Z,4.40
2023-01-11T13:14:58.386Z,4.40
2023-01-11T13:18:07.837Z,4.40
2023-01-11T13:21:19.401Z,4.30
2023-01-11T13:24:26.584Z,4.30
2023-01-11T13:27:31.901Z,4.30
2023-01-11T13:30:37.463Z,4.40
2023-01-11T13:33:45.920Z,4.40
2023-01-11T13:36:54.994Z,5.00
2023-01-11T13:40:04.864Z,4.40
2023-01-11T13:43:12.427Z,4.40
2023-01-11T13:46:22.060Z,4.40
2023-01-11T13:49:42.288Z,2.50
2023-01-11T13:52:55.317Z,4.40
2023-01-11T13:56:03.106Z,4.50
2023-01-11T13:59:13.227Z,5.10
2023-01-11T14:02:23.781Z,4.40
2023-01-11T14:05:33.108Z,4.30
2023-01-11T14:09:05.305Z,4.30
2023-01-11T14:12:15.446Z,4.40
2023-01-11T14:15:32.377Z,4.30
2023-01-11T14:18:45.832Z,4.30
2023-01-11T14:22:02.465Z,4.30
2023-01-11T14:25:15.841Z,4.30
2023-01-11T14:28:38.986Z,4.30
2023-01-11T14:32:12.913Z,4.30
2023-01-11T14:35:42.852Z,4.20
2023-01-11T14:39:07.495Z,4.20
2023-01-11T14:42:47.520Z,4.10
2023-01-11T14:46:12.046Z,4.10
2023-01-11T14:49:27.907Z,4.10
2023-01-11T14:52:40.713Z,4.10
2023-01-11T14:55:46.584Z,4.10
2023-01-11T14:59:04.273Z,4.10
2023-01-11T15:02:29.516Z,2.70
2023-01-11T15:05:38.576Z,4.00
2023-01-11T15:08:52.211Z,4.20
2023-01-11T15:11:55.692Z,4.00
2023-01-11T15:15:05.031Z,4.00
2023-01-11T15:18:18.035Z,4.00
2023-01-11T15:21:25.751Z,4.00
2023-01-11T15:24:31.882Z,4.00
2023-01-11T15:27:38.621Z,4.00
2023-01-11T15:30:52.055Z,4.00
2023-01-11T15:33:57.166Z,4.00
2023-01-11T15:37:41.358Z,4.00
2023-01-11T15:40:47.707Z,4.00
2023-01-11T15:44:08.839Z,4.00
2023-01-11T15:47:37.347Z,3.90
2023-01-11T15:51:06.383Z,3.90
2023-01-11T15:54:41.870Z,4.00
2023-01-11T15:58:14.549Z,3.90
2023-01-11T16:01:24.045Z,3.90
2023-01-11T16:04:31.808Z,3.90
2023-01-11T16:07:42.688Z,3.90
2023-01-11T16:10:54.161Z,3.90
2023-01-11T16:14:40.542Z,5.10
2023-01-11T16:17:45.558Z,3.90
2023-01-11T16:21:00.425Z,3.90
2023-01-11T16:24:07.187Z,4.00
2023-01-11T16:27:21.429Z,3.10
2023-01-11T16:30:28.947Z,3.90
2023-01-11T16:33:34.746Z,3.90
2023-01-11T16:36:41.815Z,3.90
2023-01-11T16:39:47.071Z,3.80
2023-01-11T16:42:56.939Z,3.70
2023-01-11T16:46:02.753Z,3.80
2023-01-11T16:49:11.296Z,3.80
2023-01-11T16:52:40.574Z,3.70
2023-01-11T16:55:53.862Z,3.60
2023-01-11T16:59:26.475Z,3.60
2023-01-11T17:02:37.952Z,3.60
2023-01-11T17:05:42.230Z,3.60
2023-01-11T17:08:47.957Z,3.60
2023-01-11T17:11:53.644Z,3.60
2023-01-11T17:15:09.765Z,3.70
2023-01-11T17:21:26.759Z,3.40
2023-01-11T17:27:38.078Z,3.70
2023-01-11T17:30:44.954Z,3.90
2023-01-11T17:33:51.051Z,3.70
2023-01-11T17:36:56.025Z,3.60
2023-01-11T17:40:00.196Z,3.70
2023-01-11T17:43:24.468Z,3.70
2023-01-11T17:46:27.878Z,3.60
2023-01-11T17:49:34.925Z,3.70
2023-01-11T17:52:53.869Z,3.70
2023-01-11T17:55:59.698Z,3.60
2023-01-11T17:59:20.319Z,3.60
2023-01-11T18:02:23.978Z,3.40
2023-01-11T18:05:30.744Z,3.70
2023-01-11T18:08:34.457Z,3.60
2023-01-11T18:11:40.447Z,5.50
2023-01-11T18:14:50.426Z,3.60
2023-01-11T18:17:57.331Z,3.60
2023-01-11T18:24:45.081Z,4.10
2023-01-11T18:28:02.476Z,3.50
2023-01-11T18:34:11.019Z,5.30
2023-01-11T18:43:28.487Z,3.30
2023-01-11T18:46:32.256Z,3.20
2023-01-11T18:49:36.051Z,3.20
2023-01-11T18:52:41.690Z,3.20
2023-01-11T18:55:47.954Z,3.20
2023-01-11T18:58:53.251Z,3.10
2023-01-11T19:02:15.803Z,3.10
2023-01-11T19:05:24.062Z,3.10
2023-01-11T19:08:30.699Z,3.10
2023-01-11T19:11:34.232Z,3.10
2023-01-11T19:14:37.866Z,3.40
2023-01-11T19:17:42.157Z,3.10
2023-01-11T19:23:51.287Z,3.00
2023-01-11T19:26:55.389Z,3.00
2023-01-11T19:29:59.140Z,3.00
2023-01-11T19:33:03.089Z,3.10
2023-01-11T19:36:07.707Z,3.00
2023-01-11T19:39:13.115Z,1.30
2023-01-11T19:42:16.592Z,3.10
2023-01-11T19:45:20.462Z,3.00
2023-01-11T19:48:26.777Z,3.10
2023-01-11T19:51:30.567Z,3.00
2023-01-11T19:54:35.952Z,3.10
2023-01-11T19:57:41.908Z,3.10
2023-01-11T20:00:45.726Z,3.10
2023-01-11T20:03:49.579Z,3.10
2023-01-11T20:06:54.386Z,3.10
2023-01-11T20:09:59.427Z,3.10
2023-01-11T20:13:03.092Z,3.10
2023-01-11T20:16:08.231Z,3.20
2023-01-11T20:19:12.632Z,3.20
2023-01-11T20:22:17.586Z,3.20
2023-01-11T20:25:23.181Z,3.20
2023-01-11T20:28:28.005Z,3.30
2023-01-11T20:31:35.079Z,3.20
2023-01-11T20:34:38.969Z,3.20
2023-01-11T20:37:42.445Z,3.40
2023-01-11T20:40:47.458Z,3.20
2023-01-11T20:43:51.226Z,3.20
2023-01-11T20:46:56.134Z,3.20
2023-01-11T20:49:59.927Z,3.30
2023-01-11T20:53:03.512Z,2.80
2023-01-11T20:56:09.404Z,3.20
2023-01-11T20:59:13.835Z,3.20
2023-01-11T21:02:17.724Z,3.20
2023-01-11T21:05:21.464Z,3.30
2023-01-11T21:08:25.136Z,3.20
2023-01-11T21:11:32.586Z,3.20
2023-01-11T21:14:38.867Z,3.20
2023-01-11T21:17:43.085Z,3.20
2023-01-11T21:20:49.503Z,3.40
2023-01-11T21:23:56.493Z,2.30
2023-01-11T21:30:05.685Z,3.20
2023-01-11T21:33:09.187Z,3.20
2023-01-11T21:36:14.775Z,3.20
2023-01-11T21:39:19.721Z,3.10
2023-01-11T21:42:24.558Z,3.10
2023-01-11T21:45:28.587Z,3.10
2023-01-11T21:48:32.215Z,3.10
2023-01-11T21:51:37.146Z,3.10
2023-01-11T21:54:40.534Z,3.10
2023-01-11T21:57:45.599Z,3.10
2023-01-11T22:00:50.034Z,3.10
2023-01-11T22:03:53.607Z,2.30
2023-01-11T22:06:58.553Z,3.10
2023-01-11T22:10:05.096Z,5.40
2023-01-11T22:13:12.892Z,3.10
2023-01-11T22:16:17.951Z,3.10
2023-01-11T22:19:21.483Z,3.10
2023-01-11T22:22:24.864Z,3.10
2023-01-11T22:25:28.248Z,3.10
2023-01-11T22:28:33.117Z,3.10
2023-01-11T22:31:36.595Z,3.10
2023-01-11T22:34:40.534Z,3.10
2023-01-11T22:37:43.885Z,3.00
2023-01-11T22:40:47.312Z,3.10
2023-01-11T22:43:52.537Z,3.00
2023-01-11T22:46:56.541Z,2.90
2023-01-11T22:53:03.701Z,3.00
2023-01-11T22:56:07.965Z,3.00
2023-01-11T22:59:13.017Z,2.90
2023-01-11T23:02:16.542Z,2.90
2023-01-11T23:05:20.378Z,2.90
2023-01-11T23:08:23.796Z,1.90
2023-01-11T23:11:46.244Z,2.90
2023-01-11T23:17:54.757Z,2.90
2023-01-11T23:21:03.955Z,2.90
2023-01-11T23:24:08.067Z,2.90
2023-01-11T23:27:11.506Z,3.00
2023-01-11T23:33:20.080Z,2.70
2023-01-11T23:36:25.378Z,2.80
2023-01-11T23:39:28.752Z,2.80
2023-01-11T23:42:31.067Z,2.80
2023-01-11T23:45:38.434Z,2.80
2023-01-11T23:48:40.726Z,2.80
2023-01-11T23:51:44.527Z,2.00
2023-01-11T23:54:48.171Z,2.70
2023-01-11T23:58:05.210Z,2.80
